Time;durP1;ratioP1;P1;durP2;ratioP2;P2;SDS_P1;SDS_P2;PMS_P1;PMS_P2;Temp;Humidity;BMP_temperature;BMP_pressure;BME280_temperature;BME280_humidity;BME280_pressure;Samples;Min_cycle;Max_cycle;Signal;HPM_P1;HPM_P2
2021/11/05 00:00:32;;;;;;;;;;;14.30;99.90;;;;;;2057610;28;742;-61
2021/11/05 00:01:52;;;;;;;;;;;14.30;99.90;;;;;;2071581;28;866;-61
2021/11/05 00:03:11;;;;;;;;;;;14.30;99.90;;;;;;2062539;28;1130;-61
2021/11/05 00:04:30;;;;;;;;;;;14.30;99.90;;;;;;2067355;28;1977;-61
2021/11/05 00:05:50;;;;;;;;;;;14.20;99.90;;;;;;2074176;28;686;-62
2021/11/05 00:07:09;;;;;;;;;;;14.20;99.90;;;;;;2065572;28;646;-61
2021/11/05 00:08:28;;;;;;;;;;;14.20;99.90;;;;;;2070764;28;1641;-61
2021/11/05 00:09:47;;;;;;;;;;;14.20;99.90;;;;;;2073442;28;1366;-62
2021/11/05 00:11:07;;;;;;;;;;;14.20;99.90;;;;;;2073871;28;688;-60
2021/11/05 00:12:27;;;;;;;;;;;14.20;99.90;;;;;;2073683;28;717;-61
2021/11/05 00:13:46;;;;;;;;;;;14.20;99.90;;;;;;2073387;28;1606;-62
2021/11/05 00:15:05;;;;;;;;;;;14.20;99.90;;;;;;2065392;28;834;-61
2021/11/05 00:16:24;;;;;;;;;;;14.20;99.90;;;;;;2062110;28;709;-61
2021/11/05 00:17:43;;;;;;;;;;;14.20;99.90;;;;;;2070603;28;704;-62
2021/11/05 00:19:03;;;;;;;;;;;14.20;99.90;;;;;;2065486;28;747;-60
2021/11/05 00:20:22;;;;;;;;;;;14.20;99.90;;;;;;2057415;28;653;-62
2021/11/05 00:21:41;;;;;;;;;;;14.20;99.90;;;;;;2067713;28;1679;-62
2021/11/05 00:23:00;;;;;;;;;;;14.20;99.90;;;;;;2073525;28;713;-61
2021/11/05 00:24:20;;;;;;;;;;;14.20;99.90;;;;;;2057226;28;1995;-62
2021/11/05 00:25:39;;;;;;;;;;;14.20;99.90;;;;;;2067545;28;811;-62
2021/11/05 00:26:58;;;;;;;;;;;14.20;99.90;;;;;;2073908;28;689;-62
2021/11/05 00:28:17;;;;;;;;;;;14.10;99.90;;;;;;2061781;28;1642;-61
2021/11/05 00:29:37;;;;;;;;;;;14.20;99.90;;;;;;2062456;28;1318;-61
2021/11/05 00:30:56;;;;;;;;;;;14.10;99.90;;;;;;2068131;28;964;-61
2021/11/05 00:32:15;;;;;;;;;;;14.10;99.90;;;;;;2069781;28;1051;-61
2021/11/05 00:33:35;;;;;;;;;;;14.10;99.90;;;;;;2076864;28;978;-61
2021/11/05 00:34:54;;;;;;;;;;;14.10;99.90;;;;;;2082115;28;681;-61
2021/11/05 00:36:14;;;;;;;;;;;14.10;99.90;;;;;;2081388;28;1405;-61
2021/11/05 00:37:33;;;;;;;;;;;14.10;99.90;;;;;;2065073;28;917;-61
2021/11/05 00:38:53;;;;;;;;;;;14.10;99.90;;;;;;2062613;28;1137;-62
2021/11/05 00:40:12;;;;;;;;;;;14.10;99.90;;;;;;2065518;28;1317;-63
2021/11/05 00:41:32;;;;;;;;;;;14.10;99.90;;;;;;2065272;28;752;-62
2021/11/05 00:42:51;;;;;;;;;;;14.10;99.90;;;;;;2065768;28;633;-61
2021/11/05 00:44:10;;;;;;;;;;;14.10;99.90;;;;;;2065099;28;1906;-60
2021/11/05 00:45:29;;;;;;;;;;;14.10;99.90;;;;;;2065419;28;606;-62
2021/11/05 00:46:48;;;;;;;;;;;14.10;99.90;;;;;;2065027;28;653;-61
2021/11/05 00:48:08;;;;;;;;;;;14.10;99.90;;;;;;2057447;28;1481;-62
2021/11/05 00:49:27;;;;;;;;;;;14.10;99.90;;;;;;2062104;28;1408;-60
2021/11/05 00:50:46;;;;;;;;;;;14.10;99.90;;;;;;2064922;28;751;-61
2021/11/05 00:52:05;;;;;;;;;;;14.10;99.90;;;;;;2070527;28;661;-61
2021/11/05 00:53:25;;;;;;;;;;;14.10;99.90;;;;;;2072320;28;741;-61
2021/11/05 00:54:44;;;;;;;;;;;14.10;99.90;;;;;;2065261;28;610;-61
2021/11/05 00:56:03;;;;;;;;;;;14.10;99.90;;;;;;2069895;28;730;-62
2021/11/05 00:57:22;;;;;;;;;;;14.10;99.90;;;;;;2073325;28;678;-62
2021/11/05 00:58:42;;;;;;;;;;;14.00;99.90;;;;;;2068397;28;1525;-60
2021/11/05 01:00:03;;;;;;;;;;;14.00;99.90;;;;;;2078320;28;1451;-61
2021/11/05 01:01:21;;;;;;;;;;;14.10;99.90;;;;;;2072738;28;965;-61
2021/11/05 01:02:41;;;;;;;;;;;14.00;99.90;;;;;;2071335;28;1008;-60
2021/11/05 01:04:00;;;;;;;;;;;14.00;99.90;;;;;;2065086;28;719;-60
2021/11/05 01:05:19;;;;;;;;;;;14.00;99.90;;;;;;2060523;28;1580;-62
2021/11/05 01:06:38;;;;;;;;;;;14.00;99.90;;;;;;2067069;28;1663;-60
2021/11/05 01:07:57;;;;;;;;;;;14.00;99.90;;;;;;2073653;28;697;-62
2021/11/05 01:09:16;;;;;;;;;;;14.00;99.90;;;;;;2065820;28;1357;-62
2021/11/05 01:10:37;;;;;;;;;;;14.00;99.90;;;;;;2065697;28;678;-61
2021/11/05 01:11:56;;;;;;;;;;;14.00;99.90;;;;;;2065531;28;671;-61
2021/11/05 01:13:16;;;;;;;;;;;14.00;99.90;;;;;;2065092;28;657;-61
2021/11/05 01:14:35;;;;;;;;;;;14.00;99.90;;;;;;2065293;28;768;-62
2021/11/05 01:15:54;;;;;;;;;;;14.00;99.90;;;;;;2065729;28;682;-61
2021/11/05 01:17:14;;;;;;;;;;;14.00;99.90;;;;;;2065632;28;674;-61
2021/11/05 01:18:33;;;;;;;;;;;14.00;99.90;;;;;;2065553;28;1902;-62
2021/11/05 01:19:52;;;;;;;;;;;14.00;99.90;;;;;;2065337;28;1373;-63
2021/11/05 01:21:11;;;;;;;;;;;14.00;99.90;;;;;;2056998;28;872;-61
2021/11/05 01:22:30;;;;;;;;;;;14.00;99.90;;;;;;2061756;28;702;-60
2021/11/05 01:23:49;;;;;;;;;;;14.00;99.90;;;;;;2049169;29;603;-61
2021/11/05 01:25:09;;;;;;;;;;;14.00;99.90;;;;;;2058875;28;702;-60
2021/11/05 01:26:28;;;;;;;;;;;14.00;99.90;;;;;;2064360;28;677;-61
2021/11/05 01:27:48;;;;;;;;;;;14.00;99.90;;;;;;2065253;28;599;-62
2021/11/05 01:29:07;;;;;;;;;;;13.90;99.90;;;;;;2064887;28;764;-60
2021/11/05 01:30:27;;;;;;;;;;;14.00;99.90;;;;;;2065185;28;645;-61
2021/11/05 01:31:46;;;;;;;;;;;13.90;99.90;;;;;;2081448;28;901;-61
2021/11/05 01:33:08;;;;;;;;;;;13.90;99.90;;;;;;2067168;28;1071;-63
2021/11/05 01:34:28;;;;;;;;;;;13.90;99.90;;;;;;2078723;28;641;-60
2021/11/05 01:35:47;;;;;;;;;;;13.90;99.90;;;;;;2081617;28;688;-61
2021/11/05 01:37:07;;;;;;;;;;;13.90;99.90;;;;;;2056435;28;646;-60
2021/11/05 01:38:26;;;;;;;;;;;13.90;99.90;;;;;;2057242;28;1536;-60
2021/11/05 01:39:45;;;;;;;;;;;13.90;99.90;;;;;;2061981;28;1358;-61
2021/11/05 01:41:05;;;;;;;;;;;13.90;99.90;;;;;;2056821;28;675;-60
2021/11/05 01:42:24;;;;;;;;;;;13.90;99.90;;;;;;2063426;28;1393;-60
2021/11/05 01:43:47;;;;;;;;;;;13.90;99.90;;;;;;2081044;28;1071;-61
2021/11/05 01:45:06;;;;;;;;;;;13.90;99.90;;;;;;2081750;28;614;-61
2021/11/05 01:46:25;;;;;;;;;;;13.90;99.90;;;;;;2068748;28;2044;-61
2021/11/05 01:47:45;;;;;;;;;;;13.90;99.90;;;;;;2069846;28;618;-60
2021/11/05 01:49:04;;;;;;;;;;;13.90;99.90;;;;;;2064682;28;1625;-61
2021/11/05 01:50:23;;;;;;;;;;;13.90;99.90;;;;;;2061179;28;1469;-61
2021/11/05 01:51:42;;;;;;;;;;;13.90;99.90;;;;;;2060493;28;1288;-61
2021/11/05 01:53:02;;;;;;;;;;;13.90;99.90;;;;;;2050594;28;693;-62
2021/11/05 01:54:21;;;;;;;;;;;13.90;99.90;;;;;;2058270;28;634;-61
2021/11/05 01:55:43;;;;;;;;;;;13.90;99.90;;;;;;2059259;28;876;-61
2021/11/05 01:57:03;;;;;;;;;;;13.90;99.90;;;;;;2058027;28;1368;-62
2021/11/05 01:58:24;;;;;;;;;;;13.90;99.90;;;;;;2065887;28;1528;-61
2021/11/05 01:59:48;;;;;;;;;;;13.90;99.90;;;;;;2072352;28;1297;-61
2021/11/05 02:01:07;;;;;;;;;;;13.90;99.90;;;;;;2063870;28;571;-61
2021/11/05 02:02:27;;;;;;;;;;;13.90;99.90;;;;;;2062790;28;1080;-60
2021/11/05 02:03:46;;;;;;;;;;;13.90;99.90;;;;;;2065580;28;1033;-61
2021/11/05 02:05:06;;;;;;;;;;;13.90;99.90;;;;;;2056676;28;1204;-61
2021/11/05 02:06:25;;;;;;;;;;;13.90;99.90;;;;;;2052000;28;717;-61
2021/11/05 02:07:51;;;;;;;;;;;13.90;99.90;;;;;;2049087;28;720;-61
2021/11/05 02:09:11;;;;;;;;;;;13.90;99.90;;;;;;2066884;28;1371;-60
2021/11/05 02:10:30;;;;;;;;;;;13.90;99.90;;;;;;2060661;28;713;-62
2021/11/05 02:11:51;;;;;;;;;;;13.90;99.90;;;;;;2065534;28;786;-61
2021/11/05 02:13:11;;;;;;;;;;;13.90;99.90;;;;;;2062221;28;678;-60
2021/11/05 02:14:30;;;;;;;;;;;13.90;99.90;;;;;;2060767;28;1393;-61
2021/11/05 02:15:49;;;;;;;;;;;13.90;99.90;;;;;;2069614;28;693;-61
2021/11/05 02:17:08;;;;;;;;;;;13.90;99.90;;;;;;2055117;28;1300;-60
2021/11/05 02:18:28;;;;;;;;;;;13.90;99.90;;;;;;2062588;28;1421;-61
2021/11/05 02:19:47;;;;;;;;;;;13.90;99.90;;;;;;2066617;28;1449;-62
2021/11/05 02:21:07;;;;;;;;;;;13.90;99.90;;;;;;2066185;28;582;-61
2021/11/05 02:22:26;;;;;;;;;;;13.90;99.90;;;;;;2066623;28;698;-60
2021/11/05 02:23:46;;;;;;;;;;;13.90;99.90;;;;;;2066314;28;610;-60
2021/11/05 02:25:05;;;;;;;;;;;13.80;99.90;;;;;;2071675;28;1621;-60
2021/11/05 02:26:25;;;;;;;;;;;13.80;99.90;;;;;;2066114;28;621;-60
2021/11/05 02:27:44;;;;;;;;;;;13.90;99.90;;;;;;2071575;28;608;-60
2021/11/05 02:29:03;;;;;;;;;;;13.90;99.90;;;;;;2074123;28;1492;-61
2021/11/05 02:30:22;;;;;;;;;;;13.80;99.90;;;;;;2074879;28;667;-60
2021/11/05 02:31:42;;;;;;;;;;;13.80;99.90;;;;;;2081594;28;1013;-61
2021/11/05 02:33:01;;;;;;;;;;;13.80;99.90;;;;;;2059521;28;1443;-62
2021/11/05 02:34:20;;;;;;;;;;;13.80;99.90;;;;;;2076103;28;642;-61
2021/11/05 02:35:39;;;;;;;;;;;13.80;99.90;;;;;;2055378;28;742;-60
2021/11/05 02:36:59;;;;;;;;;;;13.80;99.90;;;;;;2049600;28;943;-60
2021/11/05 02:38:19;;;;;;;;;;;13.80;99.90;;;;;;2067004;28;1008;-60
2021/11/05 02:39:38;;;;;;;;;;;13.80;99.90;;;;;;2076403;28;1386;-60
2021/11/05 02:40:57;;;;;;;;;;;13.80;99.90;;;;;;2082766;28;677;-61
2021/11/05 02:42:17;;;;;;;;;;;13.80;99.90;;;;;;2082915;28;692;-62
2021/11/05 02:43:36;;;;;;;;;;;13.80;99.90;;;;;;2074217;28;649;-61
2021/11/05 02:44:55;;;;;;;;;;;13.80;99.90;;;;;;2079216;28;1902;-61
2021/11/05 02:46:14;;;;;;;;;;;13.80;99.90;;;;;;2073758;28;626;-61
2021/11/05 02:47:34;;;;;;;;;;;13.80;99.90;;;;;;2074151;28;741;-59
2021/11/05 02:48:57;;;;;;;;;;;13.80;99.90;;;;;;2072572;28;1643;-61
2021/11/05 02:50:17;;;;;;;;;;;13.90;99.90;;;;;;2073732;28;1139;-61
2021/11/05 02:51:38;;;;;;;;;;;13.90;99.90;;;;;;2065945;28;600;-61
2021/11/05 02:52:57;;;;;;;;;;;13.90;99.90;;;;;;2071507;28;653;-60
2021/11/05 02:54:16;;;;;;;;;;;14.00;99.90;;;;;;2065831;28;610;-60
2021/11/05 02:55:35;;;;;;;;;;;14.10;99.90;;;;;;2070701;28;681;-60
2021/11/05 02:56:55;;;;;;;;;;;14.10;99.90;;;;;;2057046;28;1426;-62
2021/11/05 02:58:14;;;;;;;;;;;14.20;99.90;;;;;;2068068;28;698;-61
2021/11/05 02:59:33;;;;;;;;;;;14.30;99.90;;;;;;2064529;28;1322;-61
2021/11/05 03:00:53;;;;;;;;;;;14.40;99.90;;;;;;2069143;28;1631;-61
2021/11/05 03:02:12;;;;;;;;;;;14.50;99.90;;;;;;2055650;28;1130;-61
2021/11/05 03:03:31;;;;;;;;;;;14.50;99.90;;;;;;2063426;28;1490;-61
2021/11/05 03:04:52;;;;;;;;;;;14.60;99.90;;;;;;2069118;28;1906;-60
2021/11/05 03:06:11;;;;;;;;;;;14.60;99.90;;;;;;2070598;28;685;-60
2021/11/05 03:07:30;;;;;;;;;;;14.60;99.90;;;;;;2065880;28;1356;-60
2021/11/05 03:08:49;;;;;;;;;;;14.60;99.90;;;;;;2054732;28;662;-60
2021/11/05 03:10:09;;;;;;;;;;;14.70;99.90;;;;;;2068026;28;1359;-61
2021/11/05 03:11:28;;;;;;;;;;;14.70;99.90;;;;;;2074764;28;630;-61
2021/11/05 03:12:47;;;;;;;;;;;14.70;99.90;;;;;;2074673;28;718;-61
2021/11/05 03:14:06;;;;;;;;;;;14.70;99.90;;;;;;2074034;28;622;-61
2021/11/05 03:15:26;;;;;;;;;;;14.70;99.90;;;;;;2057985;28;690;-61
2021/11/05 03:16:45;;;;;;;;;;;14.60;99.90;;;;;;2067264;28;694;-61
2021/11/05 03:18:04;;;;;;;;;;;14.60;99.90;;;;;;2066114;28;622;-61
2021/11/05 03:19:24;;;;;;;;;;;14.60;99.90;;;;;;2066208;28;1409;-61
2021/11/05 03:20:43;;;;;;;;;;;14.60;99.90;;;;;;2066572;28;687;-61
2021/11/05 03:22:04;;;;;;;;;;;14.60;99.90;;;;;;2057988;28;686;-61
2021/11/05 03:23:23;;;;;;;;;;;14.60;99.90;;;;;;2063243;28;712;-62
2021/11/05 03:24:42;;;;;;;;;;;14.60;99.90;;;;;;2065795;28;1906;-61
2021/11/05 03:26:02;;;;;;;;;;;14.60;99.90;;;;;;2066091;28;764;-60
2021/11/05 03:27:21;;;;;;;;;;;14.60;99.90;;;;;;2068817;28;1535;-61
2021/11/05 03:28:40;;;;;;;;;;;14.60;99.90;;;;;;2065037;28;558;-60
2021/11/05 03:30:01;;;;;;;;;;;14.60;99.90;;;;;;2070953;28;1345;-61
2021/11/05 03:31:20;;;;;;;;;;;14.60;99.90;;;;;;2078089;28;969;-60
2021/11/05 03:32:40;;;;;;;;;;;14.50;99.90;;;;;;2066831;28;1167;-62
2021/11/05 03:33:59;;;;;;;;;;;14.60;99.90;;;;;;2078975;28;674;-61
2021/11/05 03:35:18;;;;;;;;;;;14.50;99.90;;;;;;2065921;28;1621;-62
2021/11/05 03:36:38;;;;;;;;;;;14.50;99.90;;;;;;2053881;28;723;-61
2021/11/05 03:37:57;;;;;;;;;;;14.50;99.90;;;;;;2070444;28;1197;-62
2021/11/05 03:39:17;;;;;;;;;;;14.50;99.90;;;;;;2065615;28;1373;-62
2021/11/05 03:40:37;;;;;;;;;;;14.50;99.90;;;;;;2068141;28;1177;-62
2021/11/05 03:41:56;;;;;;;;;;;14.50;99.90;;;;;;2070781;28;973;-61
2021/11/05 03:43:16;;;;;;;;;;;14.50;99.90;;;;;;2065857;28;682;-61
2021/11/05 03:44:35;;;;;;;;;;;14.50;99.90;;;;;;2065450;28;1910;-61
2021/11/05 03:45:54;;;;;;;;;;;14.50;99.90;;;;;;2070568;28;1292;-61
2021/11/05 03:47:13;;;;;;;;;;;14.50;99.90;;;;;;2071913;28;1424;-60
2021/11/05 03:48:35;;;;;;;;;;;14.50;99.90;;;;;;2065502;28;701;-62
2021/11/05 03:49:54;;;;;;;;;;;14.50;99.90;;;;;;2065664;28;1469;-61
2021/11/05 03:51:14;;;;;;;;;;;14.40;99.90;;;;;;2065795;28;689;-60
2021/11/05 03:52:33;;;;;;;;;;;14.40;99.90;;;;;;2057681;28;785;-62
2021/11/05 03:53:53;;;;;;;;;;;14.40;99.90;;;;;;2062853;28;705;-60
2021/11/05 03:55:12;;;;;;;;;;;14.40;99.90;;;;;;2066534;28;1383;-61
2021/11/05 03:56:31;;;;;;;;;;;14.40;99.90;;;;;;2064577;28;703;-62
2021/11/05 03:57:50;;;;;;;;;;;14.40;99.90;;;;;;2057748;28;611;-60
2021/11/05 03:59:10;;;;;;;;;;;14.40;99.90;;;;;;2062839;28;743;-61
2021/11/05 04:00:29;;;;;;;;;;;14.40;99.90;;;;;;2066155;28;736;-60
2021/11/05 04:01:48;;;;;;;;;;;14.40;99.90;;;;;;2074578;28;819;-61
2021/11/05 04:03:07;;;;;;;;;;;14.40;99.90;;;;;;2068994;28;1354;-60
2021/11/05 04:04:26;;;;;;;;;;;14.40;99.90;;;;;;2053961;28;1915;-62
2021/11/05 04:05:45;;;;;;;;;;;14.40;99.90;;;;;;2067551;28;1841;-61
2021/11/05 04:07:05;;;;;;;;;;;14.40;99.90;;;;;;2074004;28;645;-62
2021/11/05 04:08:24;;;;;;;;;;;14.40;99.90;;;;;;2073635;28;660;-62
2021/11/05 04:09:43;;;;;;;;;;;14.40;99.90;;;;;;2073678;28;1364;-62
2021/11/05 04:11:02;;;;;;;;;;;14.30;99.90;;;;;;2073219;28;1070;-61
2021/11/05 04:12:22;;;;;;;;;;;14.30;99.90;;;;;;2065493;28;1212;-62
2021/11/05 04:13:41;;;;;;;;;;;14.30;99.90;;;;;;2072100;28;1257;-62
2021/11/05 04:15:00;;;;;;;;;;;14.40;99.90;;;;;;2066109;28;1235;-61
2021/11/05 04:16:19;;;;;;;;;;;14.30;99.90;;;;;;2071665;28;1355;-62
2021/11/05 04:17:39;;;;;;;;;;;14.30;99.90;;;;;;2052962;28;1364;-61
2021/11/05 04:18:58;;;;;;;;;;;14.30;99.90;;;;;;2068039;28;1232;-60
2021/11/05 04:20:17;;;;;;;;;;;14.30;99.90;;;;;;2064260;28;1322;-63
2021/11/05 04:21:37;;;;;;;;;;;14.30;99.90;;;;;;2069504;28;1279;-61
2021/11/05 04:22:56;;;;;;;;;;;14.30;99.90;;;;;;2074231;28;1012;-61
2021/11/05 04:24:16;;;;;;;;;;;14.30;99.90;;;;;;2063718;28;1904;-62
2021/11/05 04:25:35;;;;;;;;;;;14.30;99.90;;;;;;2070348;28;1704;-62
2021/11/05 04:26:54;;;;;;;;;;;14.30;99.90;;;;;;2064956;28;1079;-61
2021/11/05 04:28:14;;;;;;;;;;;14.30;99.90;;;;;;2072791;28;1137;-61
2021/11/05 04:29:35;;;;;;;;;;;14.30;99.90;;;;;;2076170;28;1393;-63
2021/11/05 04:30:54;;;;;;;;;;;14.30;99.90;;;;;;2064874;28;1411;-60
2021/11/05 04:32:13;;;;;;;;;;;14.30;99.90;;;;;;2064104;28;1365;-62
2021/11/05 04:33:32;;;;;;;;;;;14.20;99.90;;;;;;2064396;28;1364;-60
2021/11/05 04:34:52;;;;;;;;;;;14.30;99.90;;;;;;2064367;28;1026;-62
2021/11/05 04:36:11;;;;;;;;;;;14.20;99.90;;;;;;2072100;28;1115;-61
2021/11/05 04:37:30;;;;;;;;;;;14.20;99.90;;;;;;2065811;28;1006;-61
2021/11/05 04:38:50;;;;;;;;;;;14.20;99.90;;;;;;2069574;28;1060;-62
2021/11/05 04:40:09;;;;;;;;;;;14.20;99.90;;;;;;2076341;28;1392;-61
2021/11/05 04:41:28;;;;;;;;;;;14.20;99.90;;;;;;2060353;28;1064;-61
2021/11/05 04:42:47;;;;;;;;;;;14.20;99.90;;;;;;2069136;28;1119;-62
2021/11/05 04:44:07;;;;;;;;;;;14.20;99.90;;;;;;2067230;28;1132;-61
2021/11/05 04:45:26;;;;;;;;;;;14.20;99.90;;;;;;2061069;28;1177;-62
2021/11/05 04:46:47;;;;;;;;;;;14.20;99.90;;;;;;2066547;28;1088;-60
2021/11/05 04:48:06;;;;;;;;;;;14.20;99.90;;;;;;2057974;28;1057;-62
2021/11/05 04:49:26;;;;;;;;;;;14.20;99.90;;;;;;2065224;28;1280;-61
2021/11/05 04:50:45;;;;;;;;;;;14.20;99.90;;;;;;2064735;28;1050;-61
2021/11/05 04:52:05;;;;;;;;;;;14.20;99.90;;;;;;2062076;28;1047;-61
2021/11/05 04:53:24;;;;;;;;;;;14.20;99.90;;;;;;2070380;28;965;-62
2021/11/05 04:54:43;;;;;;;;;;;14.20;99.90;;;;;;2072594;28;1028;-60
2021/11/05 04:56:02;;;;;;;;;;;14.20;99.90;;;;;;2066679;28;1126;-62
2021/11/05 04:57:21;;;;;;;;;;;14.20;99.90;;;;;;2034285;28;965;-62
2021/11/05 04:58:41;;;;;;;;;;;14.20;99.90;;;;;;2019808;28;962;-61
2021/11/05 05:00:00;;;;;;;;;;;14.20;99.90;;;;;;2014974;28;1720;-62
2021/11/05 05:01:20;;;;;;;;;;;14.20;99.90;;;;;;2019894;28;1005;-62
2021/11/05 05:02:39;;;;;;;;;;;14.10;99.90;;;;;;2059081;28;1072;-61
2021/11/05 05:03:59;;;;;;;;;;;14.10;99.90;;;;;;2070836;28;1226;-62
2021/11/05 05:05:18;;;;;;;;;;;14.10;99.90;;;;;;2070748;28;1180;-61
2021/11/05 05:06:38;;;;;;;;;;;14.10;99.90;;;;;;2062388;28;1280;-61
2021/11/05 05:07:57;;;;;;;;;;;14.10;99.90;;;;;;2062356;28;1015;-61
2021/11/05 05:09:16;;;;;;;;;;;14.10;99.90;;;;;;2074133;28;964;-61
2021/11/05 05:10:35;;;;;;;;;;;14.10;99.90;;;;;;2079833;28;985;-60
2021/11/05 05:11:54;;;;;;;;;;;14.10;99.90;;;;;;2081623;28;729;-61
2021/11/05 05:13:13;;;;;;;;;;;14.10;99.90;;;;;;2081180;28;748;-61
2021/11/05 05:14:32;;;;;;;;;;;14.10;99.90;;;;;;2075147;28;1081;-61
2021/11/05 05:15:51;;;;;;;;;;;14.10;99.90;;;;;;2061838;28;1189;-60
2021/11/05 05:17:11;;;;;;;;;;;14.10;99.90;;;;;;2062031;28;963;-62
2021/11/05 05:18:30;;;;;;;;;;;14.10;99.90;;;;;;2071425;28;1225;-61
2021/11/05 05:19:49;;;;;;;;;;;14.10;99.90;;;;;;2064038;28;1436;-61
2021/11/05 05:21:08;;;;;;;;;;;14.10;99.90;;;;;;2064545;28;1077;-62
2021/11/05 05:22:27;;;;;;;;;;;14.10;99.90;;;;;;2075224;28;1210;-60
2021/11/05 05:23:47;;;;;;;;;;;14.10;99.90;;;;;;2075785;28;1416;-61
2021/11/05 05:25:07;;;;;;;;;;;14.10;99.90;;;;;;2069622;28;1902;-61
2021/11/05 05:26:26;;;;;;;;;;;14.10;99.90;;;;;;2065272;28;1159;-60
2021/11/05 05:27:46;;;;;;;;;;;14.00;99.90;;;;;;2068999;28;1148;-60
2021/11/05 05:29:05;;;;;;;;;;;14.00;99.90;;;;;;2058147;28;1639;-61
2021/11/05 05:30:24;;;;;;;;;;;14.00;99.90;;;;;;2068843;28;1052;-61
2021/11/05 05:31:43;;;;;;;;;;;14.00;99.90;;;;;;2073268;28;1020;-61
2021/11/05 05:33:02;;;;;;;;;;;14.00;99.90;;;;;;2067422;28;1096;-61
2021/11/05 05:34:21;;;;;;;;;;;14.00;99.90;;;;;;2070043;28;1084;-62
2021/11/05 05:35:41;;;;;;;;;;;14.00;99.90;;;;;;2066785;28;1534;-60
2021/11/05 05:37:00;;;;;;;;;;;14.00;99.90;;;;;;2059518;28;1142;-61
2021/11/05 05:38:19;;;;;;;;;;;14.00;99.90;;;;;;2061514;28;990;-61
2021/11/05 05:39:39;;;;;;;;;;;14.00;99.90;;;;;;2056516;28;1475;-60
2021/11/05 05:40:58;;;;;;;;;;;14.00;99.90;;;;;;2066656;28;1146;-61
2021/11/05 05:42:18;;;;;;;;;;;14.00;99.90;;;;;;2064181;28;1403;-62
2021/11/05 05:43:37;;;;;;;;;;;14.00;99.90;;;;;;2060556;28;1547;-60
2021/11/05 05:44:56;;;;;;;;;;;14.00;99.90;;;;;;2054020;28;1911;-61
2021/11/05 05:46:15;;;;;;;;;;;14.00;99.90;;;;;;2069902;28;1299;-60
2021/11/05 05:47:35;;;;;;;;;;;14.00;99.90;;;;;;2064439;28;1029;-61
2021/11/05 05:48:54;;;;;;;;;;;14.00;99.90;;;;;;2064125;28;1220;-61
2021/11/05 05:50:15;;;;;;;;;;;14.00;99.90;;;;;;2070986;28;1482;-61
2021/11/05 05:51:34;;;;;;;;;;;14.00;99.90;;;;;;2063603;28;1208;-61
2021/11/05 05:52:53;;;;;;;;;;;14.00;99.90;;;;;;2059941;28;1472;-61
2021/11/05 05:54:12;;;;;;;;;;;13.90;99.90;;;;;;2070157;28;1256;-60
2021/11/05 05:55:32;;;;;;;;;;;13.90;99.90;;;;;;2062127;28;1399;-61
2021/11/05 05:56:51;;;;;;;;;;;13.90;99.90;;;;;;2068075;28;1218;-60
2021/11/05 05:58:10;;;;;;;;;;;13.90;99.90;;;;;;2054910;28;1387;-60
2021/11/05 05:59:29;;;;;;;;;;;13.90;99.90;;;;;;2067556;28;1499;-60
2021/11/05 06:00:49;;;;;;;;;;;13.90;99.90;;;;;;2064109;28;1399;-61
2021/11/05 06:02:08;;;;;;;;;;;13.90;99.90;;;;;;2067389;28;1330;-61
2021/11/05 06:03:27;;;;;;;;;;;13.90;99.90;;;;;;2071634;28;1264;-61
2021/11/05 06:04:46;;;;;;;;;;;13.90;99.90;;;;;;2077252;28;1906;-60
2021/11/05 06:06:06;;;;;;;;;;;13.90;99.90;;;;;;2072783;28;1218;-61
2021/11/05 06:07:25;;;;;;;;;;;13.90;99.90;;;;;;2073964;28;1247;-60
2021/11/05 06:08:44;;;;;;;;;;;13.90;99.90;;;;;;2064976;28;1065;-62
2021/11/05 06:10:04;;;;;;;;;;;13.90;99.90;;;;;;2069391;28;1456;-62
2021/11/05 06:11:24;;;;;;;;;;;13.90;99.90;;;;;;2063482;28;1525;-61
2021/11/05 06:12:43;;;;;;;;;;;13.90;99.90;;;;;;2059786;28;1568;-62
2021/11/05 06:14:02;;;;;;;;;;;13.90;99.90;;;;;;2062932;28;1259;-61
2021/11/05 06:15:22;;;;;;;;;;;13.90;99.90;;;;;;2072510;28;1257;-61
2021/11/05 06:16:41;;;;;;;;;;;13.90;99.90;;;;;;2063962;28;1331;-61
2021/11/05 06:18:00;;;;;;;;;;;13.90;99.90;;;;;;2062101;28;1474;-61
2021/11/05 06:19:19;;;;;;;;;;;13.90;99.90;;;;;;2069977;28;1987;-62
2021/11/05 06:20:38;;;;;;;;;;;13.90;99.90;;;;;;2073502;28;1084;-61
2021/11/05 06:21:57;;;;;;;;;;;13.90;99.90;;;;;;2066315;28;1096;-61
2021/11/05 06:23:16;;;;;;;;;;;13.90;99.90;;;;;;2077063;28;1158;-61
2021/11/05 06:24:36;;;;;;;;;;;13.90;99.90;;;;;;2056158;28;1973;-61
2021/11/05 06:25:55;;;;;;;;;;;13.90;99.90;;;;;;2062766;28;1446;-61
2021/11/05 06:27:14;;;;;;;;;;;13.90;99.90;;;;;;2065568;28;1218;-61
2021/11/05 06:28:33;;;;;;;;;;;13.90;99.90;;;;;;2065421;28;1298;-60
2021/11/05 06:29:53;;;;;;;;;;;13.90;99.90;;;;;;2071150;28;1544;-61
2021/11/05 06:31:12;;;;;;;;;;;13.90;99.90;;;;;;2074252;28;1257;-61
2021/11/05 06:32:31;;;;;;;;;;;13.90;99.90;;;;;;2065807;28;1327;-61
2021/11/05 06:33:50;;;;;;;;;;;13.90;99.90;;;;;;2069342;28;1027;-62
2021/11/05 06:35:10;;;;;;;;;;;13.90;99.90;;;;;;2071941;28;1760;-61
2021/11/05 06:36:29;;;;;;;;;;;13.90;99.90;;;;;;2072278;28;1257;-61
2021/11/05 06:37:49;;;;;;;;;;;13.90;99.90;;;;;;2071921;28;972;-61
2021/11/05 06:39:09;;;;;;;;;;;13.90;99.90;;;;;;2061961;28;1466;-61
2021/11/05 06:40:28;;;;;;;;;;;13.90;99.90;;;;;;2056379;28;1110;-61
2021/11/05 06:41:47;;;;;;;;;;;13.90;99.90;;;;;;2061515;28;975;-61
2021/11/05 06:43:06;;;;;;;;;;;13.90;99.90;;;;;;2069649;28;963;-60
2021/11/05 06:44:26;;;;;;;;;;;13.90;99.90;;;;;;2056183;28;1899;-61
2021/11/05 06:45:45;;;;;;;;;;;13.90;99.90;;;;;;2066910;28;918;-60
2021/11/05 06:47:04;;;;;;;;;;;13.90;99.90;;;;;;2072540;28;948;-60
2021/11/05 06:48:24;;;;;;;;;;;13.90;99.90;;;;;;2073354;28;992;-60
2021/11/05 06:49:43;;;;;;;;;;;13.90;99.90;;;;;;2064900;28;1400;-60
2021/11/05 06:51:02;;;;;;;;;;;13.90;99.90;;;;;;2063940;28;971;-61
2021/11/05 06:52:22;;;;;;;;;;;13.90;99.90;;;;;;2070426;28;985;-61
2021/11/05 06:53:41;;;;;;;;;;;13.90;99.90;;;;;;2074321;28;926;-61
2021/11/05 06:55:01;;;;;;;;;;;13.90;99.90;;;;;;2073781;28;996;-61
2021/11/05 06:56:20;;;;;;;;;;;13.90;99.90;;;;;;2074855;28;1064;-59
2021/11/05 06:57:40;;;;;;;;;;;13.80;99.90;;;;;;2073870;28;1224;-60
2021/11/05 06:59:00;;;;;;;;;;;13.80;99.90;;;;;;2074034;28;1117;-60
2021/11/05 07:00:20;;;;;;;;;;;13.80;99.90;;;;;;2062410;28;1286;-61
2021/11/05 07:01:39;;;;;;;;;;;13.80;99.90;;;;;;2071251;28;977;-60
2021/11/05 07:03:02;;;;;;;;;;;13.80;99.90;;;;;;2057884;28;891;-61
2021/11/05 07:04:20;;;;;;;;;;;13.80;99.90;;;;;;2066865;28;1914;-61
2021/11/05 07:05:40;;;;;;;;;;;13.80;99.90;;;;;;2067435;28;895;-60
2021/11/05 07:06:59;;;;;;;;;;;13.80;99.90;;;;;;2061663;28;1172;-60
2021/11/05 07:08:18;;;;;;;;;;;13.80;99.90;;;;;;2072944;28;918;-61
2021/11/05 07:09:38;;;;;;;;;;;13.80;99.90;;;;;;2067292;28;1836;-60
2021/11/05 07:10:58;;;;;;;;;;;13.80;99.90;;;;;;2071439;28;953;-60
2021/11/05 07:12:17;;;;;;;;;;;13.80;99.90;;;;;;2073323;28;926;-59
2021/11/05 07:13:36;;;;;;;;;;;13.80;99.90;;;;;;2071805;28;1091;-60
2021/11/05 07:14:56;;;;;;;;;;;13.80;99.90;;;;;;2071913;28;930;-59
2021/11/05 07:16:15;;;;;;;;;;;13.80;99.90;;;;;;2076087;28;1422;-60
2021/11/05 07:17:34;;;;;;;;;;;13.80;99.90;;;;;;2072956;28;891;-60
2021/11/05 07:18:53;;;;;;;;;;;13.80;99.90;;;;;;2064228;28;1368;-61
2021/11/05 07:20:14;;;;;;;;;;;13.80;99.90;;;;;;2070542;28;1592;-60
2021/11/05 07:21:33;;;;;;;;;;;13.80;99.90;;;;;;2072853;28;883;-61
2021/11/05 07:22:53;;;;;;;;;;;13.80;99.90;;;;;;2073651;28;1190;-60
2021/11/05 07:24:12;;;;;;;;;;;13.80;99.90;;;;;;2074078;28;979;-60
2021/11/05 07:25:32;;;;;;;;;;;13.80;99.90;;;;;;2073843;28;1256;-61
2021/11/05 07:26:53;;;;;;;;;;;13.80;99.90;;;;;;2068367;28;866;-60
2021/11/05 07:28:12;;;;;;;;;;;13.80;99.90;;;;;;2070741;28;813;-61
2021/11/05 07:29:32;;;;;;;;;;;13.80;99.90;;;;;;2073661;28;1420;-60
2021/11/05 07:30:52;;;;;;;;;;;13.80;99.90;;;;;;2071340;28;1347;-60
2021/11/05 07:32:12;;;;;;;;;;;13.80;99.90;;;;;;2074983;28;939;-60
2021/11/05 07:33:31;;;;;;;;;;;13.80;99.90;;;;;;2073553;28;969;-60
2021/11/05 07:34:54;;;;;;;;;;;13.80;99.90;;;;;;2071464;28;1204;-60
2021/11/05 07:36:13;;;;;;;;;;;13.80;99.90;;;;;;2072385;28;1209;-61
2021/11/05 07:37:33;;;;;;;;;;;13.80;99.90;;;;;;2073927;28;1096;-61
2021/11/05 07:38:52;;;;;;;;;;;13.70;99.90;;;;;;2073233;28;1081;-60
2021/11/05 07:40:11;;;;;;;;;;;13.70;99.90;;;;;;2073280;28;1369;-60
2021/11/05 07:41:30;;;;;;;;;;;13.70;99.90;;;;;;2064140;28;893;-60
2021/11/05 07:42:49;;;;;;;;;;;13.70;99.90;;;;;;2059495;28;1173;-61
2021/11/05 07:44:09;;;;;;;;;;;13.70;99.90;;;;;;2062583;28;1001;-60
2021/11/05 07:45:28;;;;;;;;;;;13.70;99.90;;;;;;2069584;28;856;-60
2021/11/05 07:46:47;;;;;;;;;;;13.80;99.90;;;;;;2072850;28;1100;-60
2021/11/05 07:48:06;;;;;;;;;;;13.70;99.90;;;;;;2071609;28;1435;-60
2021/11/05 07:49:26;;;;;;;;;;;13.70;99.90;;;;;;2071511;28;1479;-61
2021/11/05 07:50:45;;;;;;;;;;;13.70;99.90;;;;;;2075153;28;921;-60
2021/11/05 07:52:04;;;;;;;;;;;13.70;99.90;;;;;;2074404;28;952;-62